Virginia Beach, VA (23459)

11:13 PM EDT on August 20, 2014 (GMT -0400)
Fred's Weather Station | Change Station
CLOSE
Current Station
Personal Weather Station
Location: Virginia Beach, VA
Elevation: 23 ft
Nearby Weather Stations

Elev 23 ft 36.86 °N, 76.05 °W | Updated 7 seconds ago

Scattered Clouds
Scattered Clouds
74.1 °F
Feels Like 73 °F
N
0.0
Wind Variable Wind from South
Gusts 2.0 mph

Today
High -- | Low -- °F
--% Chance of Precip.
Yesterday
High -- | Low -- °F
Precip. -- in
6:25 AM 7:48 PM
Waning Crescent, 17% visible
Pressure 30.01 in
Visibility 10.0 miles
Clouds Few 3000 ft
Scattered Clouds 28000 ft
Heat Index 73 °F
Dew Point 70 °F
Humidity 87%
Rainfall 0.00 in
Snow Depth Not available.
UV 0 out of 12
Pollen 8.60 out of 12
Ozone Good
PM2.5 Good
Flu Activity Not available.
METAR KNTU 210256Z 16006KT 10SM FEW030 SCT280 23/21 A3000 RMK AO2 SLP160 T02330206 50004

More Conditions Fewer Conditions

Pressure 30.01 in
Visibility 10.0 miles
Clouds Few 3000 ft
Scattered Clouds 28000 ft
Heat Index 73 °F
Dew Point 70 °F
Humidity 87%
Rainfall 0.00 in
Snow Depth Not available.
UV 0 out of 12
Pollen 8.60 out of 12
Ozone Good
PM2.5 Good
Flu Activity Not available.
METAR KNTU 210256Z 16006KT 10SM FEW030 SCT280 23/21 A3000 RMK AO2 SLP160 T02330206 50004

More Conditions Fewer Conditions

10-Day Weather Forecast

Almanac

Astronomy

Aug. 20, 2014 Rise Set
Actual Time 6:25 AM EDT 7:48 PM EDT
Civil Twilight 5:57 AM EDT 8:16 PM EDT
Nautical Twilight 5:25 AM EDT 8:48 PM EDT
Astronomical Twilight 4:51 AM EDT 9:22 PM EDT
Moon 2:05 AM EDT (8/20) 4:29 PM EDT (8/20)
Length of Visible Light 14h 18m
Length of Day
13h 23m
Tomorrow will be 2m 9s shorter.
Waning Crescent, 17% of the Moon is Illuminated
Today
Waning Crescent
Aug 25
New
Sep 2
First Quarter
Sep 8
Full
Sep 15
Last Quarter

Today's Extremes

State Highs State Lows

Community

WunderPhotos

Upload Photos

1,745,843 photos uploaded!

WunderBlogs® & News

By Dr. Jeff Masters
Director of Meteorology, Weather Underground
By Kari Strenfel
Meteorologist, Weather Underground
By Christopher C. Burt
Weather Historian, Weather Underground
August 20, 2014
August 20, 2014
August 20, 2014

Nearby

Air Quality

  Air Quality AQ Index Pollutant
Yesterday Good
OZONE
Yesterday Good
PM2.5
Current Good
OZONE
Current Good
PM2.5
Wednesday Good
OZONE
Wednesday Good
PM2.5
Thursday Moderate
OZONE
Thursday Good
PM2.5

Snow Depth

Station Depth Elevation
No new snow has been reported.

Earthquake Activity

City Distance Mag. Time & Date
No recent earthquake activity has been reported nearby.
Minimum magnitude displayed is 2.5.

Coastal Water Temperatures

Place Temperature
Kiptopeke, VA 82.0 °F
Chesapeake Bay Bridge Tunnel, VA 77.0 °F
Money Point, VA 84.9 °F
Duck Pier, NC 79.0 °F
Sewells Point, VA 79.0 °F

Nearby Weather Stations